Gawler, Australia
Current Conditions -  °F | °C
As of 10:00 PM on Sunday 23 Nov 2014 (Local Time) from YPAD Reporting Station
Clear Clear  
Wind Chill: 73°   Ceiling: Unl
Heat Index: 73°   Visibility: 6mi
Dew Point: 54°   Wind: 8mph
Humidity: 50%   Direction: 140°SE
Pressure: 29.77"   Gusts: NA
Location:  34.6°S, 138.75°E
Report Text: YPAD 231200Z 14007KT CAVOK 23/12 Q1008 NOSIG
Loading
Personal Weather Stations






























Interactive Weather Map New forecast layout! Learn more

10-Day Weather Forecast

Advertisements
Track Severe Weather on mobile